createdAt,value
2022-11-03T00:14:53.702Z,0
2022-11-03T00:29:53.700Z,0
2022-11-03T00:44:53.645Z,0
2022-11-03T00:59:53.645Z,0
2022-11-03T01:14:53.616Z,0
2022-11-03T01:29:53.586Z,0
2022-11-03T01:44:53.592Z,0
2022-11-03T01:59:53.549Z,1
2022-11-03T02:14:53.540Z,0
2022-11-03T02:29:53.523Z,0
2022-11-03T02:44:53.516Z,0
2022-11-03T02:59:53.534Z,0
2022-11-03T03:14:53.503Z,0
2022-11-03T03:29:53.513Z,0
2022-11-03T03:44:53.439Z,1
2022-11-03T03:59:53.473Z,0
2022-11-03T04:14:53.414Z,0
2022-11-03T04:29:53.430Z,0
2022-11-03T04:44:53.388Z,0
2022-11-03T04:59:53.407Z,0
2022-11-03T05:14:58.037Z,0
2022-11-03T05:29:55.179Z,0
2022-11-03T05:44:53.331Z,0
2022-11-03T05:59:53.361Z,0
2022-11-03T06:14:53.299Z,0
2022-11-03T06:29:53.312Z,0
2022-11-03T06:44:53.279Z,0
2022-11-03T07:00:06.568Z,0
2022-11-03T07:14:53.271Z,0
2022-11-03T07:29:53.272Z,6
2022-11-03T07:44:53.230Z,2
2022-11-03T07:59:53.233Z,1
2022-11-03T08:14:53.198Z,1
2022-11-03T08:29:53.211Z,0
2022-11-03T08:44:53.152Z,0
2022-11-03T08:59:53.166Z,0
2022-11-03T09:14:53.122Z,0
2022-11-03T09:30:12.374Z,0
2022-11-03T09:44:53.089Z,0
2022-11-03T09:59:53.093Z,0
2022-11-03T10:14:53.059Z,0
2022-11-03T10:29:57.928Z,0
2022-11-03T10:44:53.035Z,13
2022-11-03T10:59:53.028Z,10
2022-11-03T11:14:52.996Z,50
2022-11-03T11:29:52.992Z,177
2022-11-03T11:44:52.968Z,97
2022-11-03T11:59:52.936Z,38
2022-11-03T12:14:52.881Z,140
2022-11-03T12:29:52.881Z,211
2022-11-03T12:44:52.830Z,201
2022-11-03T12:59:52.866Z,58
2022-11-03T13:14:52.822Z,172
2022-11-03T13:29:52.847Z,131
2022-11-03T13:44:52.826Z,206
2022-11-03T13:59:52.787Z,178
2022-11-03T14:14:52.746Z,224
2022-11-03T14:29:52.737Z,98
2022-11-03T14:59:53.684Z,87
2022-11-03T15:14:52.652Z,106
2022-11-03T15:29:52.668Z,211
2022-11-03T15:44:52.638Z,179
2022-11-03T15:59:55.239Z,97
2022-11-03T16:14:52.598Z,45
2022-11-03T16:29:52.611Z,118
2022-11-03T16:44:52.562Z,204
2022-11-03T16:59:52.569Z,34
2022-11-03T17:14:55.646Z,19
2022-11-03T17:29:52.533Z,10
2022-11-03T17:44:52.475Z,68
2022-11-03T17:59:52.491Z,22
2022-11-03T18:14:52.443Z,191
2022-11-03T18:29:52.488Z,53
2022-11-03T18:44:52.415Z,0
2022-11-03T19:14:52.363Z,41
2022-11-03T19:29:52.376Z,21
2022-11-03T19:44:52.334Z,17
2022-11-03T19:59:52.365Z,0
2022-11-03T20:14:52.325Z,0
2022-11-03T20:29:52.323Z,0
2022-11-03T20:44:52.279Z,59
2022-11-03T20:59:52.278Z,116
2022-11-03T21:14:52.254Z,12
2022-11-03T21:29:59.403Z,38
2022-11-03T21:44:52.218Z,1
2022-11-03T21:59:52.225Z,168
2022-11-03T22:14:52.159Z,173
2022-11-03T22:29:52.178Z,173
2022-11-03T22:44:52.133Z,100
2022-11-03T22:59:52.139Z,18
2022-11-03T23:14:52.121Z,12
2022-11-03T23:29:52.128Z,50
2022-11-03T23:44:52.074Z,49
2022-11-03T23:59:52.101Z,5
